sensor_id;sensor_type;location;lat;lon;timestamp;pressure;altitude;pressure_sealevel;temperature;humidity
29247;BME280;16272;48.188;9.964;2022-07-25T00:00:50;95724.28;;;18.59;74.91
29247;BME280;16272;48.188;9.964;2022-07-25T00:03:15;95725.97;;;18.80;73.72
29247;BME280;16272;48.188;9.964;2022-07-25T00:05:41;95719.13;;;18.70;73.48
29247;BME280;16272;48.188;9.964;2022-07-25T00:08:07;95713.94;;;18.82;73.86
29247;BME280;16272;48.188;9.964;2022-07-25T00:10:32;95715.03;;;19.08;71.92
29247;BME280;16272;48.188;9.964;2022-07-25T00:12:58;95713.16;;;19.02;71.95
29247;BME280;16272;48.188;9.964;2022-07-25T00:15:23;95709.88;;;19.00;72.27
29247;BME280;16272;48.188;9.964;2022-07-25T00:17:49;95709.03;;;18.86;73.68
29247;BME280;16272;48.188;9.964;2022-07-25T00:20:14;95708.06;;;18.25;75.12
29247;BME280;16272;48.188;9.964;2022-07-25T00:22:39;95708.97;;;18.66;73.25
29247;BME280;16272;48.188;9.964;2022-07-25T00:25:05;95698.91;;;18.95;71.60
29247;BME280;16272;48.188;9.964;2022-07-25T00:27:34;95705.25;;;18.60;73.60
29247;BME280;16272;48.188;9.964;2022-07-25T00:29:59;95702.75;;;18.59;73.03
29247;BME280;16272;48.188;9.964;2022-07-25T00:32:24;95700.66;;;18.47;74.61
29247;BME280;16272;48.188;9.964;2022-07-25T00:34:50;95707.03;;;18.33;74.87
29247;BME280;16272;48.188;9.964;2022-07-25T00:37:15;95709.09;;;18.31;76.02
29247;BME280;16272;48.188;9.964;2022-07-25T00:39:41;95711.03;;;18.70;73.35
29247;BME280;16272;48.188;9.964;2022-07-25T00:42:06;95715.00;;;18.81;73.17
29247;BME280;16272;48.188;9.964;2022-07-25T00:44:32;95706.00;;;18.27;75.65
29247;BME280;16272;48.188;9.964;2022-07-25T00:46:57;95707.97;;;18.05;76.37
29247;BME280;16272;48.188;9.964;2022-07-25T00:49:24;95702.34;;;17.93;77.11
29247;BME280;16272;48.188;9.964;2022-07-25T00:51:51;95703.34;;;17.86;76.90
29247;BME280;16272;48.188;9.964;2022-07-25T00:54:17;95694.94;;;17.67;77.74
29247;BME280;16272;48.188;9.964;2022-07-25T00:56:43;95698.72;;;17.73;77.74
29247;BME280;16272;48.188;9.964;2022-07-25T00:59:09;95695.25;;;18.34;73.99
29247;BME280;16272;48.188;9.964;2022-07-25T01:01:36;95701.47;;;18.48;73.26
29247;BME280;16272;48.188;9.964;2022-07-25T01:04:02;95698.84;;;17.93;77.12
29247;BME280;16272;48.188;9.964;2022-07-25T01:06:27;95706.16;;;18.19;75.66
29247;BME280;16272;48.188;9.964;2022-07-25T01:08:53;95704.34;;;18.40;75.25
29247;BME280;16272;48.188;9.964;2022-07-25T01:11:18;95700.06;;;18.65;74.06
29247;BME280;16272;48.188;9.964;2022-07-25T01:13:44;95697.34;;;18.39;74.56
29247;BME280;16272;48.188;9.964;2022-07-25T01:16:09;95688.63;;;17.81;76.68
29247;BME280;16272;48.188;9.964;2022-07-25T01:18:34;95694.69;;;17.55;77.27
29247;BME280;16272;48.188;9.964;2022-07-25T01:21:01;95691.34;;;17.47;78.00
29247;BME280;16272;48.188;9.964;2022-07-25T01:23:26;95694.22;;;17.45;78.46
29247;BME280;16272;48.188;9.964;2022-07-25T01:25:52;95691.72;;;17.85;76.25
29247;BME280;16272;48.188;9.964;2022-07-25T01:28:17;95690.72;;;17.86;77.14
29247;BME280;16272;48.188;9.964;2022-07-25T01:30:46;95690.81;;;18.06;76.67
29247;BME280;16272;48.188;9.964;2022-07-25T01:33:18;95683.06;;;18.38;74.76
29247;BME280;16272;48.188;9.964;2022-07-25T01:35:45;95689.06;;;18.40;74.05
29247;BME280;16272;48.188;9.964;2022-07-25T01:38:11;95687.41;;;18.32;73.30
29247;BME280;16272;48.188;9.964;2022-07-25T01:40:36;95686.91;;;18.02;75.76
29247;BME280;16272;48.188;9.964;2022-07-25T01:43:02;95689.34;;;18.04;75.50
29247;BME280;16272;48.188;9.964;2022-07-25T01:45:27;95690.50;;;17.81;75.00
29247;BME280;16272;48.188;9.964;2022-07-25T01:47:53;95697.09;;;17.43;76.03
29247;BME280;16272;48.188;9.964;2022-07-25T01:50:18;95693.78;;;17.76;75.54
29247;BME280;16272;48.188;9.964;2022-07-25T01:52:44;95684.75;;;17.21;78.54
29247;BME280;16272;48.188;9.964;2022-07-25T01:55:09;95697.16;;;17.22;78.64
29247;BME280;16272;48.188;9.964;2022-07-25T01:57:35;95681.00;;;17.85;76.23
29247;BME280;16272;48.188;9.964;2022-07-25T02:00:00;95682.31;;;17.96;73.95
29247;BME280;16272;48.188;9.964;2022-07-25T02:02:26;95681.16;;;18.18;73.54
29247;BME280;16272;48.188;9.964;2022-07-25T02:04:51;95670.16;;;18.13;72.63
29247;BME280;16272;48.188;9.964;2022-07-25T02:07:17;95667.44;;;18.00;73.31
29247;BME280;16272;48.188;9.964;2022-07-25T02:09:42;95662.56;;;17.75;74.18
29247;BME280;16272;48.188;9.964;2022-07-25T02:12:08;95667.69;;;17.70;73.93
29247;BME280;16272;48.188;9.964;2022-07-25T02:14:33;95658.34;;;17.94;73.97
29247;BME280;16272;48.188;9.964;2022-07-25T02:16:58;95659.94;;;17.89;74.13
29247;BME280;16272;48.188;9.964;2022-07-25T02:19:24;95665.41;;;18.02;74.72
29247;BME280;16272;48.188;9.964;2022-07-25T02:21:49;95663.19;;;18.26;73.03
29247;BME280;16272;48.188;9.964;2022-07-25T02:24:15;95662.47;;;18.04;74.00
29247;BME280;16272;48.188;9.964;2022-07-25T02:26:40;95667.06;;;18.16;73.63
29247;BME280;16272;48.188;9.964;2022-07-25T02:29:05;95671.22;;;18.12;74.11
29247;BME280;16272;48.188;9.964;2022-07-25T02:31:33;95667.69;;;17.00;75.41
29247;BME280;16272;48.188;9.964;2022-07-25T02:33:58;95661.69;;;16.98;75.33
29247;BME280;16272;48.188;9.964;2022-07-25T02:36:23;95667.38;;;16.67;77.64
29247;BME280;16272;48.188;9.964;2022-07-25T02:38:49;95662.78;;;17.04;74.77
29247;BME280;16272;48.188;9.964;2022-07-25T02:41:14;95663.88;;;16.88;75.55
29247;BME280;16272;48.188;9.964;2022-07-25T02:43:39;95662.88;;;17.17;75.65
29247;BME280;16272;48.188;9.964;2022-07-25T02:46:05;95658.53;;;16.45;79.27
29247;BME280;16272;48.188;9.964;2022-07-25T02:48:30;95659.16;;;16.25;79.78
29247;BME280;16272;48.188;9.964;2022-07-25T02:50:55;95655.41;;;17.13;75.11
29247;BME280;16272;48.188;9.964;2022-07-25T02:53:20;95656.22;;;16.63;79.07
29247;BME280;16272;48.188;9.964;2022-07-25T02:55:48;95658.38;;;16.75;78.32
29247;BME280;16272;48.188;9.964;2022-07-25T02:58:13;95647.22;;;16.71;79.50
29247;BME280;16272;48.188;9.964;2022-07-25T03:00:39;95656.09;;;17.28;76.56
29247;BME280;16272;48.188;9.964;2022-07-25T03:03:04;95654.38;;;17.49;74.61
29247;BME280;16272;48.188;9.964;2022-07-25T03:05:29;95651.91;;;17.54;73.45
29247;BME280;16272;48.188;9.964;2022-07-25T03:07:55;95648.97;;;17.42;73.84
29247;BME280;16272;48.188;9.964;2022-07-25T03:10:20;95650.91;;;16.92;76.08
29247;BME280;16272;48.188;9.964;2022-07-25T03:12:46;95645.31;;;16.86;77.11
29247;BME280;16272;48.188;9.964;2022-07-25T03:15:13;95646.97;;;17.16;76.27
29247;BME280;16272;48.188;9.964;2022-07-25T03:17:39;95638.38;;;17.27;75.67
29247;BME280;16272;48.188;9.964;2022-07-25T03:20:05;95642.72;;;17.35;76.01
29247;BME280;16272;48.188;9.964;2022-07-25T03:22:31;95642.88;;;17.26;75.39
29247;BME280;16272;48.188;9.964;2022-07-25T03:24:56;95635.59;;;17.49;74.61
29247;BME280;16272;48.188;9.964;2022-07-25T03:27:22;95636.59;;;17.48;74.76
29247;BME280;16272;48.188;9.964;2022-07-25T03:29:47;95642.69;;;17.63;73.39
29247;BME280;16272;48.188;9.964;2022-07-25T03:32:12;95642.38;;;17.44;75.57
29247;BME280;16272;48.188;9.964;2022-07-25T03:34:38;95637.66;;;17.47;76.10
29247;BME280;16272;48.188;9.964;2022-07-25T03:37:03;95637.69;;;16.68;75.57
29247;BME280;16272;48.188;9.964;2022-07-25T03:39:30;95639.44;;;16.33;76.50
29247;BME280;16272;48.188;9.964;2022-07-25T03:41:55;95631.09;;;16.64;74.90
29247;BME280;16272;48.188;9.964;2022-07-25T03:44:22;95639.59;;;16.46;75.97
29247;BME280;16272;48.188;9.964;2022-07-25T03:46:48;95633.75;;;16.43;75.56
29247;BME280;16272;48.188;9.964;2022-07-25T03:49:14;95636.38;;;16.14;79.13
29247;BME280;16272;48.188;9.964;2022-07-25T03:51:39;95636.75;;;16.11;81.54
29247;BME280;16272;48.188;9.964;2022-07-25T03:54:05;95629.31;;;16.50;78.34
29247;BME280;16272;48.188;9.964;2022-07-25T03:56:36;95618.19;;;16.53;78.61
29247;BME280;16272;48.188;9.964;2022-07-25T03:59:03;95626.69;;;16.13;80.83
29247;BME280;16272;48.188;9.964;2022-07-25T04:01:29;95628.53;;;16.13;80.31
29247;BME280;16272;48.188;9.964;2022-07-25T04:03:55;95618.31;;;16.23;79.84
29247;BME280;16272;48.188;9.964;2022-07-25T04:06:20;95622.78;;;16.16;80.13
29247;BME280;16272;48.188;9.964;2022-07-25T04:08:47;95625.16;;;16.26;79.63
29247;BME280;16272;48.188;9.964;2022-07-25T04:11:12;95632.31;;;16.40;79.18
29247;BME280;16272;48.188;9.964;2022-07-25T04:13:38;95629.31;;;17.00;76.02
29247;BME280;16272;48.188;9.964;2022-07-25T04:16:03;95623.66;;;16.88;75.73
29247;BME280;16272;48.188;9.964;2022-07-25T04:18:29;95625.88;;;17.13;75.61
29247;BME280;16272;48.188;9.964;2022-07-25T04:20:54;95621.31;;;17.41;74.35
29247;BME280;16272;48.188;9.964;2022-07-25T04:23:19;95616.16;;;17.95;71.80
29247;BME280;16272;48.188;9.964;2022-07-25T04:25:45;95609.22;;;18.34;70.58
29247;BME280;16272;48.188;9.964;2022-07-25T04:28:10;95613.41;;;18.83;68.42
29247;BME280;16272;48.188;9.964;2022-07-25T04:30:35;95597.19;;;19.37;66.70
29247;BME280;16272;48.188;9.964;2022-07-25T04:33:01;95597.78;;;19.97;64.00
29247;BME280;16272;48.188;9.964;2022-07-25T04:35:39;95607.59;;;18.66;68.00
29247;BME280;16272;48.188;9.964;2022-07-25T04:38:05;95610.47;;;19.18;67.51
29247;BME280;16272;48.188;9.964;2022-07-25T04:40:30;95619.41;;;18.85;68.23
29247;BME280;16272;48.188;9.964;2022-07-25T04:43:04;95608.41;;;18.80;69.30
29247;BME280;16272;48.188;9.964;2022-07-25T04:45:30;95602.56;;;18.10;72.05
29247;BME280;16272;48.188;9.964;2022-07-25T04:47:56;95601.44;;;17.77;74.45
29247;BME280;16272;48.188;9.964;2022-07-25T04:50:21;95612.38;;;17.82;74.04
29247;BME280;16272;48.188;9.964;2022-07-25T04:52:48;95605.09;;;17.28;77.79
29247;BME280;16272;48.188;9.964;2022-07-25T04:55:13;95605.69;;;17.58;78.04
29247;BME280;16272;48.188;9.964;2022-07-25T04:57:40;95600.34;;;17.72;76.89
29247;BME280;16272;48.188;9.964;2022-07-25T05:00:07;95596.69;;;17.86;76.50
29247;BME280;16272;48.188;9.964;2022-07-25T05:02:34;95602.75;;;18.02;75.22
29247;BME280;16272;48.188;9.964;2022-07-25T05:05:21;95600.94;;;18.29;75.04
29247;BME280;16272;48.188;9.964;2022-07-25T05:07:46;95590.84;;;18.98;72.23
29247;BME280;16272;48.188;9.964;2022-07-25T05:10:12;95588.13;;;19.04;71.63
29247;BME280;16272;48.188;9.964;2022-07-25T05:12:37;95597.44;;;19.02;72.57
29247;BME280;16272;48.188;9.964;2022-07-25T05:15:03;95586.09;;;18.86;73.29
29247;BME280;16272;48.188;9.964;2022-07-25T05:17:29;95587.31;;;18.70;72.47
29247;BME280;16272;48.188;9.964;2022-07-25T05:19:54;95587.31;;;18.77;72.95
29247;BME280;16272;48.188;9.964;2022-07-25T05:22:21;95587.72;;;18.74;73.39
29247;BME280;16272;48.188;9.964;2022-07-25T05:24:46;95594.53;;;19.10;72.46
29247;BME280;16272;48.188;9.964;2022-07-25T05:27:12;95588.97;;;19.70;69.86
29247;BME280;16272;48.188;9.964;2022-07-25T05:29:38;95593.09;;;19.86;69.79
29247;BME280;16272;48.188;9.964;2022-07-25T05:32:04;95598.50;;;20.18;68.82
29247;BME280;16272;48.188;9.964;2022-07-25T05:34:29;95598.22;;;20.26;68.12
29247;BME280;16272;48.188;9.964;2022-07-25T05:36:55;95596.09;;;20.67;66.04
29247;BME280;16272;48.188;9.964;2022-07-25T05:39:20;95603.88;;;19.07;73.43
29247;BME280;16272;48.188;9.964;2022-07-25T05:41:45;95596.22;;;19.70;72.30
29247;BME280;16272;48.188;9.964;2022-07-25T05:44:11;95598.72;;;19.71;71.80
29247;BME280;16272;48.188;9.964;2022-07-25T05:46:36;95599.00;;;20.01;72.10
29247;BME280;16272;48.188;9.964;2022-07-25T05:49:02;95600.16;;;20.19;70.75
29247;BME280;16272;48.188;9.964;2022-07-25T05:51:27;95588.69;;;20.55;69.94
29247;BME280;16272;48.188;9.964;2022-07-25T05:53:53;95598.53;;;20.75;69.47
29247;BME280;16272;48.188;9.964;2022-07-25T05:56:18;95590.72;;;20.35;70.63
29247;BME280;16272;48.188;9.964;2022-07-25T05:58:44;95595.31;;;20.60;69.68
29247;BME280;16272;48.188;9.964;2022-07-25T06:01:13;95592.56;;;21.35;66.44
29247;BME280;16272;48.188;9.964;2022-07-25T06:03:39;95588.06;;;21.66;66.13
29247;BME280;16272;48.188;9.964;2022-07-25T06:06:04;95588.94;;;21.41;66.68
29247;BME280;16272;48.188;9.964;2022-07-25T06:08:30;95584.41;;;21.60;65.79
29247;BME280;16272;48.188;9.964;2022-07-25T06:10:56;95581.47;;;21.43;66.56
29247;BME280;16272;48.188;9.964;2022-07-25T06:13:22;95582.66;;;21.84;65.19
29247;BME280;16272;48.188;9.964;2022-07-25T06:15:50;95585.91;;;22.05;64.28
29247;BME280;16272;48.188;9.964;2022-07-25T06:18:15;95584.38;;;21.42;68.40
29247;BME280;16272;48.188;9.964;2022-07-25T06:20:41;95584.28;;;22.04;66.02
29247;BME280;16272;48.188;9.964;2022-07-25T06:23:06;95579.16;;;22.56;64.91
29247;BME280;16272;48.188;9.964;2022-07-25T06:25:32;95571.19;;;22.73;64.49
29247;BME280;16272;48.188;9.964;2022-07-25T06:27:57;95578.88;;;22.04;65.76
29247;BME280;16272;48.188;9.964;2022-07-25T06:30:22;95573.44;;;22.88;65.02
29247;BME280;16272;48.188;9.964;2022-07-25T06:32:49;95565.75;;;22.62;64.91
29247;BME280;16272;48.188;9.964;2022-07-25T06:35:15;95569.22;;;23.16;62.16
29247;BME280;16272;48.188;9.964;2022-07-25T06:37:41;95568.34;;;23.51;61.93
29247;BME280;16272;48.188;9.964;2022-07-25T06:40:07;95566.72;;;23.26;62.94
29247;BME280;16272;48.188;9.964;2022-07-25T06:42:37;95575.31;;;23.23;64.49
29247;BME280;16272;48.188;9.964;2022-07-25T06:45:04;95576.84;;;23.31;63.14
29247;BME280;16272;48.188;9.964;2022-07-25T06:47:29;95562.66;;;23.12;63.75
29247;BME280;16272;48.188;9.964;2022-07-25T06:49:54;95564.47;;;23.47;62.80
29247;BME280;16272;48.188;9.964;2022-07-25T06:52:20;95552.84;;;23.75;64.51
29247;BME280;16272;48.188;9.964;2022-07-25T06:54:45;95556.72;;;23.15;64.50
29247;BME280;16272;48.188;9.964;2022-07-25T06:57:10;95545.88;;;23.79;62.41
29247;BME280;16272;48.188;9.964;2022-07-25T06:59:36;95548.25;;;23.88;64.65
29247;BME280;16272;48.188;9.964;2022-07-25T07:02:01;95549.13;;;24.85;60.47
29247;BME280;16272;48.188;9.964;2022-07-25T07:04:28;95542.63;;;24.86;58.96
29247;BME280;16272;48.188;9.964;2022-07-25T07:06:54;95547.09;;;24.00;62.82
29247;BME280;16272;48.188;9.964;2022-07-25T07:09:19;95552.28;;;24.02;63.20
29247;BME280;16272;48.188;9.964;2022-07-25T07:11:44;95548.03;;;24.52;61.42
29247;BME280;16272;48.188;9.964;2022-07-25T07:14:09;95540.41;;;25.22;59.22
29247;BME280;16272;48.188;9.964;2022-07-25T07:16:35;95551.47;;;24.47;63.55
29247;BME280;16272;48.188;9.964;2022-07-25T07:19:01;95545.88;;;25.39;59.30
29247;BME280;16272;48.188;9.964;2022-07-25T07:21:27;95540.38;;;25.56;58.94
29247;BME280;16272;48.188;9.964;2022-07-25T07:23:52;95551.16;;;25.11;59.84
29247;BME280;16272;48.188;9.964;2022-07-25T07:26:18;95536.81;;;25.77;58.52
29247;BME280;16272;48.188;9.964;2022-07-25T07:28:43;95531.50;;;25.88;58.21
29247;BME280;16272;48.188;9.964;2022-07-25T07:31:19;95532.69;;;26.51;56.59
29247;BME280;16272;48.188;9.964;2022-07-25T07:33:45;95533.63;;;26.35;58.46
29247;BME280;16272;48.188;9.964;2022-07-25T07:36:10;95527.72;;;26.43;56.96
29247;BME280;16272;48.188;9.964;2022-07-25T07:38:35;95529.03;;;26.68;57.31
29247;BME280;16272;48.188;9.964;2022-07-25T07:41:20;95530.03;;;26.89;57.11
29247;BME280;16272;48.188;9.964;2022-07-25T07:43:45;95520.72;;;27.27;55.76
29247;BME280;16272;48.188;9.964;2022-07-25T07:46:11;95524.00;;;27.24;56.87
29247;BME280;16272;48.188;9.964;2022-07-25T07:48:36;95520.59;;;27.07;53.92
29247;BME280;16272;48.188;9.964;2022-07-25T07:51:02;95512.63;;;27.32;51.01
29247;BME280;16272;48.188;9.964;2022-07-25T07:53:31;95513.44;;;28.01;53.12
29247;BME280;16272;48.188;9.964;2022-07-25T07:56:15;95515.63;;;27.94;51.19
29247;BME280;16272;48.188;9.964;2022-07-25T07:58:42;95515.44;;;28.37;51.20
29247;BME280;16272;48.188;9.964;2022-07-25T08:01:08;95517.78;;;27.97;51.43
29247;BME280;16272;48.188;9.964;2022-07-25T08:03:33;95519.47;;;28.14;50.77
29247;BME280;16272;48.188;9.964;2022-07-25T08:05:58;95520.84;;;28.16;50.02
29247;BME280;16272;48.188;9.964;2022-07-25T08:08:24;95509.56;;;27.92;51.28
29247;BME280;16272;48.188;9.964;2022-07-25T08:10:50;95508.31;;;28.26;49.40
29247;BME280;16272;48.188;9.964;2022-07-25T08:13:18;95513.50;;;28.27;48.27
29247;BME280;16272;48.188;9.964;2022-07-25T08:15:45;95511.59;;;28.38;49.35
29247;BME280;16272;48.188;9.964;2022-07-25T08:18:12;95511.31;;;28.50;48.72
29247;BME280;16272;48.188;9.964;2022-07-25T08:20:37;95508.59;;;28.50;48.10
29247;BME280;16272;48.188;9.964;2022-07-25T08:23:03;95511.88;;;28.83;46.94
29247;BME280;16272;48.188;9.964;2022-07-25T08:25:29;95502.47;;;29.56;49.24
29247;BME280;16272;48.188;9.964;2022-07-25T08:27:55;95496.91;;;29.76;44.96
29247;BME280;16272;48.188;9.964;2022-07-25T08:30:20;95501.97;;;30.53;45.23
29247;BME280;16272;48.188;9.964;2022-07-25T08:32:52;95493.00;;;32.22;41.49
29247;BME280;16272;48.188;9.964;2022-07-25T08:35:19;95503.63;;;30.49;46.97
29247;BME280;16272;48.188;9.964;2022-07-25T08:37:47;95499.34;;;30.33;46.30
29247;BME280;16272;48.188;9.964;2022-07-25T08:40:14;95502.66;;;30.24;46.79
29247;BME280;16272;48.188;9.964;2022-07-25T08:42:39;95501.66;;;30.10;44.98
29247;BME280;16272;48.188;9.964;2022-07-25T08:45:07;95498.72;;;30.46;45.41
29247;BME280;16272;48.188;9.964;2022-07-25T08:47:34;95500.91;;;30.78;45.21
29247;BME280;16272;48.188;9.964;2022-07-25T08:50:06;95490.59;;;31.29;43.69
29247;BME280;16272;48.188;9.964;2022-07-25T08:52:33;95488.22;;;30.58;44.10
29247;BME280;16272;48.188;9.964;2022-07-25T08:55:09;95488.34;;;31.07;44.69
29247;BME280;16272;48.188;9.964;2022-07-25T08:57:36;95484.63;;;31.46;43.41
29247;BME280;16272;48.188;9.964;2022-07-25T09:00:06;95481.78;;;31.32;44.12
29247;BME280;16272;48.188;9.964;2022-07-25T09:02:32;95482.56;;;31.81;41.44
29247;BME280;16272;48.188;9.964;2022-07-25T09:05:02;95486.09;;;31.62;41.01
29247;BME280;16272;48.188;9.964;2022-07-25T09:07:36;95481.97;;;32.08;41.36
29247;BME280;16272;48.188;9.964;2022-07-25T09:10:23;95486.94;;;31.33;43.30
29247;BME280;16272;48.188;9.964;2022-07-25T09:13:10;95476.38;;;32.13;42.32
29247;BME280;16272;48.188;9.964;2022-07-25T09:15:49;95479.31;;;31.79;40.40
29247;BME280;16272;48.188;9.964;2022-07-25T09:18:17;95472.66;;;32.23;41.30
29247;BME280;16272;48.188;9.964;2022-07-25T09:20:48;95477.97;;;32.71;41.00
29247;BME280;16272;48.188;9.964;2022-07-25T09:25:51;95474.38;;;32.19;40.38
29247;BME280;16272;48.188;9.964;2022-07-25T09:28:17;95472.84;;;32.65;40.33
29247;BME280;16272;48.188;9.964;2022-07-25T09:30:55;95465.66;;;32.69;38.21
29247;BME280;16272;48.188;9.964;2022-07-25T09:33:22;95473.97;;;32.45;38.12
29247;BME280;16272;48.188;9.964;2022-07-25T09:35:48;95458.78;;;32.33;37.28
29247;BME280;16272;48.188;9.964;2022-07-25T09:38:15;95465.06;;;32.53;37.31
29247;BME280;16272;48.188;9.964;2022-07-25T09:41:01;95465.06;;;31.96;37.35
29247;BME280;16272;48.188;9.964;2022-07-25T09:43:37;95468.31;;;32.74;37.99
29247;BME280;16272;48.188;9.964;2022-07-25T09:46:03;95458.38;;;32.40;40.51
29247;BME280;16272;48.188;9.964;2022-07-25T09:48:28;95470.63;;;33.13;36.16
29247;BME280;16272;48.188;9.964;2022-07-25T09:50:54;95459.75;;;32.56;37.08
29247;BME280;16272;48.188;9.964;2022-07-25T09:53:20;95462.03;;;33.34;38.32
29247;BME280;16272;48.188;9.964;2022-07-25T09:55:45;95453.94;;;33.51;37.24
29247;BME280;16272;48.188;9.964;2022-07-25T09:58:12;95455.41;;;34.13;37.26
29247;BME280;16272;48.188;9.964;2022-07-25T10:00:39;95453.88;;;33.57;33.20
29247;BME280;16272;48.188;9.964;2022-07-25T10:06:36;95450.06;;;32.64;34.99
29247;BME280;16272;48.188;9.964;2022-07-25T10:09:09;95458.13;;;33.35;36.18
29247;BME280;16272;48.188;9.964;2022-07-25T10:11:35;95448.97;;;33.54;39.61
29247;BME280;16272;48.188;9.964;2022-07-25T10:14:09;95442.03;;;33.70;37.91
29247;BME280;16272;48.188;9.964;2022-07-25T10:16:45;95449.31;;;33.05;37.07
29247;BME280;16272;48.188;9.964;2022-07-25T10:19:39;95445.91;;;33.27;37.42
29247;BME280;16272;48.188;9.964;2022-07-25T10:22:09;95450.75;;;33.03;38.77
29247;BME280;16272;48.188;9.964;2022-07-25T10:24:36;95446.72;;;33.42;36.60
29247;BME280;16272;48.188;9.964;2022-07-25T10:27:11;95444.25;;;33.68;35.77
29247;BME280;16272;48.188;9.964;2022-07-25T10:29:38;95449.94;;;33.99;39.44
29247;BME280;16272;48.188;9.964;2022-07-25T10:32:07;95441.16;;;33.97;39.36
29247;BME280;16272;48.188;9.964;2022-07-25T10:34:33;95442.91;;;34.30;37.96
29247;BME280;16272;48.188;9.964;2022-07-25T10:37:15;95439.66;;;33.91;38.94
29247;BME280;16272;48.188;9.964;2022-07-25T10:39:44;95425.47;;;33.98;38.59
29247;BME280;16272;48.188;9.964;2022-07-25T10:42:14;95428.84;;;34.17;39.00
29247;BME280;16272;48.188;9.964;2022-07-25T10:44:43;95427.16;;;34.44;38.32
29247;BME280;16272;48.188;9.964;2022-07-25T10:47:10;95424.56;;;34.48;37.89
29247;BME280;16272;48.188;9.964;2022-07-25T10:49:39;95426.16;;;34.71;37.56
29247;BME280;16272;48.188;9.964;2022-07-25T10:52:04;95420.56;;;33.95;37.84
29247;BME280;16272;48.188;9.964;2022-07-25T10:54:40;95411.41;;;34.98;36.04
29247;BME280;16272;48.188;9.964;2022-07-25T10:57:13;95416.59;;;34.91;36.36
29247;BME280;16272;48.188;9.964;2022-07-25T10:59:40;95412.78;;;34.56;35.59
29247;BME280;16272;48.188;9.964;2022-07-25T11:02:07;95410.56;;;35.21;29.75
29247;BME280;16272;48.188;9.964;2022-07-25T11:04:34;95412.78;;;35.10;30.81
29247;BME280;16272;48.188;9.964;2022-07-25T11:07:11;95408.78;;;34.85;32.20
29247;BME280;16272;48.188;9.964;2022-07-25T11:09:38;95399.72;;;35.33;31.89
29247;BME280;16272;48.188;9.964;2022-07-25T11:12:04;95401.72;;;34.47;30.96
29247;BME280;16272;48.188;9.964;2022-07-25T11:14:32;95395.94;;;36.65;29.52
29247;BME280;16272;48.188;9.964;2022-07-25T11:17:12;95386.34;;;36.63;29.82
29247;BME280;16272;48.188;9.964;2022-07-25T11:19:39;95394.22;;;35.42;30.34
29247;BME280;16272;48.188;9.964;2022-07-25T11:22:05;95395.59;;;34.59;28.16
29247;BME280;16272;48.188;9.964;2022-07-25T11:24:38;95393.31;;;35.15;28.49
29247;BME280;16272;48.188;9.964;2022-07-25T11:27:05;95385.66;;;35.52;26.88
29247;BME280;16272;48.188;9.964;2022-07-25T11:29:32;95384.88;;;36.56;30.28
29247;BME280;16272;48.188;9.964;2022-07-25T11:32:01;95379.97;;;35.57;27.75
29247;BME280;16272;48.188;9.964;2022-07-25T11:34:29;95378.00;;;36.89;28.88
29247;BME280;16272;48.188;9.964;2022-07-25T11:36:56;95378.06;;;36.19;26.94
29247;BME280;16272;48.188;9.964;2022-07-25T11:39:24;95369.09;;;35.69;27.66
29247;BME280;16272;48.188;9.964;2022-07-25T11:42:04;95381.03;;;35.30;27.89
29247;BME280;16272;48.188;9.964;2022-07-25T11:44:39;95369.00;;;36.10;26.75
29247;BME280;16272;48.188;9.964;2022-07-25T11:47:06;95372.22;;;35.94;29.14
29247;BME280;16272;48.188;9.964;2022-07-25T11:49:49;95359.53;;;36.46;26.26
29247;BME280;16272;48.188;9.964;2022-07-25T11:52:26;95366.72;;;36.29;29.26
29247;BME280;16272;48.188;9.964;2022-07-25T11:55:03;95356.00;;;36.01;27.31
29247;BME280;16272;48.188;9.964;2022-07-25T11:57:31;95350.28;;;35.14;26.43
29247;BME280;16272;48.188;9.964;2022-07-25T11:59:59;95366.22;;;35.92;27.63
29247;BME280;16272;48.188;9.964;2022-07-25T12:02:27;95362.44;;;35.70;27.98
29247;BME280;16272;48.188;9.964;2022-07-25T12:05:06;95356.78;;;36.46;27.61
29247;BME280;16272;48.188;9.964;2022-07-25T12:07:53;95350.94;;;36.30;27.14
29247;BME280;16272;48.188;9.964;2022-07-25T12:10:23;95352.28;;;36.79;27.24
29247;BME280;16272;48.188;9.964;2022-07-25T12:12:56;95351.03;;;36.77;27.10
29247;BME280;16272;48.188;9.964;2022-07-25T12:15:27;95338.22;;;36.46;26.46
29247;BME280;16272;48.188;9.964;2022-07-25T12:17:54;95342.13;;;36.54;26.75
29247;BME280;16272;48.188;9.964;2022-07-25T12:20:22;95334.00;;;36.96;28.52
29247;BME280;16272;48.188;9.964;2022-07-25T12:22:50;95333.94;;;36.66;25.91
29247;BME280;16272;48.188;9.964;2022-07-25T12:25:23;95327.16;;;37.32;26.31
29247;BME280;16272;48.188;9.964;2022-07-25T12:27:49;95326.44;;;36.75;27.33
29247;BME280;16272;48.188;9.964;2022-07-25T12:30:15;95324.59;;;36.32;28.83
29247;BME280;16272;48.188;9.964;2022-07-25T12:32:42;95337.41;;;36.46;28.41
29247;BME280;16272;48.188;9.964;2022-07-25T12:35:09;95334.16;;;36.43;28.27
29247;BME280;16272;48.188;9.964;2022-07-25T12:37:35;95326.19;;;36.98;28.36
29247;BME280;16272;48.188;9.964;2022-07-25T12:40:00;95337.53;;;37.05;26.81
29247;BME280;16272;48.188;9.964;2022-07-25T12:42:26;95333.88;;;35.84;26.96
29247;BME280;16272;48.188;9.964;2022-07-25T12:44:53;95323.34;;;36.68;28.09
29247;BME280;16272;48.188;9.964;2022-07-25T12:47:19;95315.66;;;36.00;25.90
29247;BME280;16272;48.188;9.964;2022-07-25T12:49:45;95317.91;;;37.28;28.50
29247;BME280;16272;48.188;9.964;2022-07-25T12:52:11;95320.50;;;36.38;27.36
29247;BME280;16272;48.188;9.964;2022-07-25T12:54:37;95316.78;;;36.25;29.23
29247;BME280;16272;48.188;9.964;2022-07-25T12:57:12;95309.69;;;35.90;27.56
29247;BME280;16272;48.188;9.964;2022-07-25T12:59:38;95307.22;;;37.18;28.49
29247;BME280;16272;48.188;9.964;2022-07-25T13:02:04;95313.19;;;37.28;28.28
29247;BME280;16272;48.188;9.964;2022-07-25T13:04:29;95303.38;;;37.01;26.36
29247;BME280;16272;48.188;9.964;2022-07-25T13:06:55;95302.00;;;37.16;27.96